Airfield :
LOGIN :

Register | Disclaimer

   EN    FR    IT 

 










Legend :    VFR   Marginal VFR   IFR   Intensive IFR   Very Intensive IFR
Visi :
Ceiling :
>= 8 km
>= 3000ft
5 to 8 km
1000 to 3000 ft
1500m to 5 km
500 to 1000 ft
800 to 1500m
200 to 500 ft
< 800m
< 200 ft
Symbols :   Thunderstorms  Fog  Heavy snow  Heavy precipitations  Wind > 20 kt
SIGMETs :     Misc.  Thunderstorms  Icing  Turbulence  Mountain Waves  Volcanic Ashes






- Airport Elevation : 1367 ft
- IATA code : FDH


EDNY - Friedrichshafen

CURRENT METAR :
  • 222250Z AUTO 26003KT 210V300 8000 // OVC022/// 04/03 Q0993

EXPIRED METARs :
  • 222220Z AUTO VRB02KT 9999 // BKN023/// BKN040/// OVC047/// 04/03 Q0993
  • 222150Z AUTO VRB02KT 9999 // FEW027/// BKN062/// OVC070/// 04/02 Q0992
  • 222120Z AUTO 15003KT 9999 // FEW053/// BKN068/// OVC077/// 04/02 Q0991
  • 222050Z AUTO 33005KT 290V020 9999 // FEW048/// OVC056/// 06/02 Q0991
  • 222020Z AUTO 32005KT 9999 // FEW054/// OVC063/// 04/01 Q0991

TAF TAF EDNY
Valid from the 22 at 18:00 until the 23 at 18:00 UTC


221700Z 2218/2318 32005KT 9999 SCT020 BKN050
TEMPO 2218/2223 VRB03KT
TEMPO 2222/2224 4000 RADZ BKN012
BECMG 2300/2302 25010KT 4000 -SNRA BKN009
PROB30
TEMPO 2301/2305 25015G25KT 1400 SN OVC004
BECMG 2305/2308 23005KT 9999 SCT025
BECMG 2313/2316 03004KT



MET'MAP, your aeronautical weather chart ! - Copyright ORBIFLY December 2007 - Disclaimer

ORBIFLY MET'MAP TEAM :

Programming & Development : Alexandra Zaïnal
Concept & original design : Baudouin d'Aumeries
Assistance for programming : Marc-Olivier Méhu
Technical & hardware support : Manuel Goepfert

Contact : metmap@orbifly.com




SOURCES & CREDITS :

   NOAA